createdAt,value
2023-01-10T00:01:27.272Z,6.27
2023-01-10T00:03:53.586Z,6.32
2023-01-10T00:06:19.918Z,6.20
2023-01-10T00:08:46.235Z,6.28
2023-01-10T00:11:31.451Z,6.30
2023-01-10T00:13:57.821Z,6.25
2023-01-10T00:16:24.176Z,6.35
2023-01-10T00:18:50.543Z,6.46
2023-01-10T00:21:16.921Z,6.47
2023-01-10T00:23:43.513Z,6.40
2023-01-10T00:26:09.842Z,6.48
2023-01-10T00:28:36.209Z,6.28
2023-01-10T00:31:06.462Z,6.26
2023-01-10T00:33:32.857Z,6.34
2023-01-10T00:35:59.168Z,6.30
2023-01-10T00:38:25.478Z,6.30
2023-01-10T00:40:51.818Z,6.21
2023-01-10T00:43:36.984Z,6.28
2023-01-10T00:46:03.348Z,6.24
2023-01-10T00:48:29.710Z,6.27
2023-01-10T00:50:56.029Z,6.23
2023-01-10T00:53:22.358Z,6.21
2023-01-10T00:55:48.668Z,6.24
2023-01-10T00:58:15.060Z,6.35
2023-01-10T01:00:41.378Z,6.30
2023-01-10T01:03:08.141Z,6.28
2023-01-10T01:05:34.518Z,6.35
2023-01-10T01:08:00.831Z,6.38
2023-01-10T01:10:27.172Z,6.38
2023-01-10T01:12:53.487Z,6.30
2023-01-10T01:15:22.928Z,6.23
2023-01-10T01:17:49.253Z,6.30
2023-01-10T01:20:15.587Z,6.31
2023-01-10T01:22:41.884Z,6.25
2023-01-10T01:25:08.233Z,6.26
2023-01-10T01:27:35.179Z,6.21
2023-01-10T01:30:01.509Z,6.23
2023-01-10T01:32:27.939Z,6.27
2023-01-10T01:34:54.500Z,6.21
2023-01-10T01:37:20.852Z,6.19
2023-01-10T01:39:47.230Z,6.21
2023-01-10T01:42:13.544Z,6.25
2023-01-10T01:44:39.854Z,6.27
2023-01-10T01:49:37.961Z,6.24
2023-01-10T01:52:04.294Z,6.19
2023-01-10T01:54:30.607Z,6.23
2023-01-10T01:56:56.964Z,6.28
2023-01-10T01:59:23.845Z,6.23
2023-01-10T02:01:50.275Z,6.10
2023-01-10T02:04:16.678Z,6.12
2023-01-10T02:06:43.047Z,6.13
2023-01-10T02:09:09.426Z,6.27
2023-01-10T02:11:35.829Z,6.18
2023-01-10T02:14:02.587Z,6.14
2023-01-10T02:16:28.906Z,6.10
2023-01-10T02:18:55.221Z,6.12
2023-01-10T02:21:21.545Z,6.12
2023-01-10T02:23:47.861Z,6.12
2023-01-10T02:26:14.185Z,6.09
2023-01-10T02:28:40.510Z,6.11
2023-01-10T02:31:06.876Z,6.10
2023-01-10T02:33:33.227Z,6.01
2023-01-10T02:35:59.627Z,6.13
2023-01-10T02:38:25.945Z,6.12
2023-01-10T02:40:52.255Z,6.10
2023-01-10T02:43:19.457Z,6.01
2023-01-10T02:45:45.794Z,6.04
2023-01-10T02:48:12.138Z,6.07
2023-01-10T02:50:38.739Z,6.00
2023-01-10T02:53:05.123Z,5.89
2023-01-10T02:55:31.470Z,5.97
2023-01-10T02:57:57.772Z,5.90
2023-01-10T03:00:24.715Z,5.76
2023-01-10T03:02:51.026Z,5.70
2023-01-10T03:05:17.369Z,5.69
2023-01-10T03:07:43.697Z,5.71
2023-01-10T03:10:10.036Z,5.72
2023-01-10T03:12:36.348Z,5.77
2023-01-10T03:15:03.048Z,5.75
2023-01-10T03:17:29.766Z,5.83
2023-01-10T03:19:56.329Z,5.77
2023-01-10T03:22:22.649Z,5.87
2023-01-10T03:24:48.959Z,5.80
2023-01-10T03:27:15.266Z,5.79
2023-01-10T03:29:41.613Z,5.68
2023-01-10T03:32:07.917Z,5.74
2023-01-10T03:34:34.231Z,5.71
2023-01-10T03:37:00.561Z,5.75
2023-01-10T03:39:26.899Z,5.77
2023-01-10T03:41:53.248Z,5.76
2023-01-10T03:44:38.318Z,5.80
2023-01-10T03:47:04.672Z,5.80
2023-01-10T03:49:30.994Z,5.77
2023-01-10T03:51:57.341Z,5.75
2023-01-10T03:54:23.679Z,5.76
2023-01-10T03:56:50.046Z,5.81
2023-01-10T03:59:16.403Z,5.83
2023-01-10T04:01:42.839Z,5.84
2023-01-10T04:04:09.252Z,5.80
2023-01-10T04:06:35.618Z,5.81
2023-01-10T04:09:01.932Z,5.78
2023-01-10T04:11:28.446Z,5.78
2023-01-10T04:13:54.798Z,5.76
2023-01-10T04:16:21.173Z,5.88
2023-01-10T04:18:47.581Z,5.84
2023-01-10T04:21:13.912Z,5.82
2023-01-10T04:23:40.271Z,5.79
2023-01-10T04:26:06.592Z,5.85
2023-01-10T04:28:32.912Z,5.85
2023-01-10T04:30:59.325Z,5.87
2023-01-10T04:33:25.651Z,5.89
2023-01-10T04:35:52.019Z,5.89
2023-01-10T04:38:18.349Z,5.85
2023-01-10T04:40:44.685Z,5.87
2023-01-10T04:43:11.002Z,5.84
2023-01-10T04:45:37.531Z,5.90
2023-01-10T04:48:03.903Z,5.82
2023-01-10T04:50:30.286Z,5.81
2023-01-10T04:52:56.672Z,5.82
2023-01-10T04:55:23.394Z,5.81
2023-01-10T04:57:49.722Z,5.86
2023-01-10T05:00:16.067Z,5.84
2023-01-10T05:02:45.555Z,5.86
2023-01-10T05:05:12.024Z,6.00
2023-01-10T05:07:38.409Z,6.01
2023-01-10T05:10:04.727Z,5.87
2023-01-10T05:12:31.096Z,5.95
2023-01-10T05:14:57.401Z,6.00
2023-01-10T05:17:23.751Z,5.98
2023-01-10T05:19:50.061Z,5.99
2023-01-10T05:22:16.388Z,5.97
2023-01-10T05:24:42.699Z,5.87
2023-01-10T05:27:09.073Z,5.96
2023-01-10T05:29:35.443Z,5.96
2023-01-10T05:32:01.807Z,5.94
2023-01-10T05:34:28.188Z,5.99
2023-01-10T05:36:54.525Z,6.01
2023-01-10T05:39:21.512Z,6.00
2023-01-10T05:41:47.813Z,5.91
2023-01-10T05:44:14.895Z,5.98
2023-01-10T05:46:41.327Z,6.06
2023-01-10T05:49:07.683Z,6.00
2023-01-10T05:51:33.989Z,6.03
2023-01-10T05:54:00.324Z,5.96
2023-01-10T05:56:26.647Z,5.89
2023-01-10T05:59:04.415Z,5.93
2023-01-10T06:01:31.887Z,5.90
2023-01-10T06:03:58.318Z,5.92
2023-01-10T06:06:24.726Z,5.86
2023-01-10T06:08:51.064Z,5.87
2023-01-10T06:11:17.402Z,5.89
2023-01-10T06:13:43.804Z,5.88
2023-01-10T06:16:10.174Z,5.92
2023-01-10T06:18:36.521Z,5.88
2023-01-10T06:21:02.840Z,5.94
2023-01-10T06:23:30.412Z,5.97
2023-01-10T06:25:56.712Z,5.84
2023-01-10T06:28:23.030Z,5.87
2023-01-10T06:30:49.354Z,5.88
2023-01-10T06:33:15.675Z,5.91
2023-01-10T06:35:42.053Z,5.86
2023-01-10T06:38:08.609Z,5.88
2023-01-10T06:40:35.051Z,5.83
2023-01-10T06:43:01.475Z,5.81
2023-01-10T06:45:27.915Z,5.81
2023-01-10T06:47:54.221Z,5.80
2023-01-10T06:50:20.603Z,5.85
2023-01-10T06:52:46.957Z,5.78
2023-01-10T06:55:13.308Z,5.77
2023-01-10T06:57:39.637Z,5.81
2023-01-10T07:00:06.341Z,5.74
2023-01-10T07:02:32.664Z,5.82
2023-01-10T07:04:58.986Z,5.85
2023-01-10T07:07:25.291Z,5.84
2023-01-10T07:09:51.624Z,5.82
2023-01-10T07:12:17.959Z,5.85
2023-01-10T07:14:44.310Z,5.80
2023-01-10T07:17:10.708Z,5.79
2023-01-10T07:19:37.058Z,5.76
2023-01-10T07:22:03.683Z,5.84
2023-01-10T07:24:30.005Z,5.94
2023-01-10T07:26:56.628Z,5.90
2023-01-10T07:29:23.011Z,5.80
2023-01-10T07:31:49.367Z,5.76
2023-01-10T07:34:15.712Z,5.72
2023-01-10T07:36:42.054Z,5.70
2023-01-10T07:39:08.449Z,5.75
2023-01-10T07:41:34.852Z,5.81
2023-01-10T07:44:01.181Z,5.78
2023-01-10T07:46:27.591Z,5.89
2023-01-10T07:48:53.964Z,5.76
2023-01-10T07:51:20.349Z,5.84
2023-01-10T07:53:46.689Z,5.73
2023-01-10T07:56:13.122Z,5.71
2023-01-10T07:58:39.429Z,5.73
2023-01-10T08:01:06.467Z,5.60
2023-01-10T08:03:36.846Z,5.64
2023-01-10T08:06:03.268Z,5.57
2023-01-10T08:08:29.653Z,5.64
2023-01-10T08:10:56.024Z,5.69
2023-01-10T08:13:22.383Z,5.78
2023-01-10T08:15:50.527Z,5.74
2023-01-10T08:18:17.084Z,5.74
2023-01-10T08:20:43.458Z,5.75
2023-01-10T08:23:09.775Z,5.71
2023-01-10T08:25:37.944Z,5.86
2023-01-10T08:28:05.687Z,5.80
2023-01-10T08:30:32.030Z,5.83
2023-01-10T08:32:58.394Z,5.74
2023-01-10T08:35:24.762Z,5.84
2023-01-10T08:37:51.098Z,5.79
2023-01-10T08:40:17.429Z,5.87
2023-01-10T08:42:43.738Z,5.98
2023-01-10T08:45:10.147Z,5.90
2023-01-10T08:47:36.516Z,5.86
2023-01-10T08:50:02.958Z,5.89
2023-01-10T08:52:29.333Z,5.99
2023-01-10T08:54:55.651Z,6.07
2023-01-10T08:57:21.988Z,6.08
2023-01-10T08:59:48.341Z,5.93
2023-01-10T09:02:15.106Z,5.93
2023-01-10T09:04:41.447Z,5.95
2023-01-10T09:07:07.823Z,6.05
2023-01-10T09:09:34.164Z,6.00
2023-01-10T09:12:00.487Z,6.02
2023-01-10T09:14:26.838Z,6.10
2023-01-10T09:16:53.150Z,6.24
2023-01-10T09:19:19.463Z,6.31
2023-01-10T09:21:45.778Z,6.31
2023-01-10T09:24:12.488Z,6.33
2023-01-10T09:26:38.823Z,6.37
2023-01-10T09:29:05.148Z,6.37
2023-01-10T09:31:31.533Z,6.34
2023-01-10T09:33:57.863Z,6.43
2023-01-10T09:36:24.198Z,6.27
2023-01-10T09:38:50.524Z,6.34
2023-01-10T09:41:16.846Z,6.30
2023-01-10T09:43:43.149Z,6.37
2023-01-10T09:46:09.473Z,6.30
2023-01-10T09:48:35.804Z,6.18
2023-01-10T09:51:02.144Z,6.19
2023-01-10T09:53:28.477Z,6.18
2023-01-10T09:55:54.860Z,6.03
2023-01-10T09:58:21.278Z,6.12
2023-01-10T10:00:47.609Z,5.84
2023-01-10T10:03:14.004Z,5.88
2023-01-10T10:05:40.375Z,5.77
2023-01-10T10:08:07.426Z,5.94
2023-01-10T10:10:33.759Z,5.92
2023-01-10T10:13:00.084Z,6.12
2023-01-10T10:15:26.396Z,6.15
2023-01-10T10:17:52.735Z,6.02
2023-01-10T10:20:19.075Z,6.03
2023-01-10T10:22:45.396Z,6.14
2023-01-10T10:25:11.819Z,6.19
2023-01-10T10:27:38.147Z,6.44
2023-01-10T10:30:04.885Z,6.40
2023-01-10T10:32:31.210Z,6.31
2023-01-10T10:34:57.571Z,6.45
2023-01-10T10:37:23.884Z,6.47
2023-01-10T10:39:50.228Z,6.34
2023-01-10T10:42:16.569Z,6.33
2023-01-10T10:44:43.023Z,6.44
2023-01-10T10:47:09.325Z,6.40
2023-01-10T10:49:35.643Z,6.37
2023-01-10T10:52:01.982Z,6.46
2023-01-10T10:54:28.315Z,6.46
2023-01-10T10:56:56.217Z,6.57
2023-01-10T10:59:22.581Z,6.57
2023-01-10T11:01:49.976Z,6.50
2023-01-10T11:04:16.390Z,6.57
2023-01-10T11:06:48.897Z,6.67
2023-01-10T11:09:16.316Z,6.67
2023-01-10T11:11:42.703Z,6.72
2023-01-10T11:14:09.042Z,6.75
2023-01-10T11:16:36.792Z,6.84
2023-01-10T11:19:03.124Z,6.63
2023-01-10T11:21:29.443Z,6.72
2023-01-10T11:23:55.773Z,6.71
2023-01-10T11:26:22.122Z,6.87
2023-01-10T11:28:48.843Z,6.67
2023-01-10T11:31:15.209Z,6.73
2023-01-10T11:33:41.538Z,6.84
2023-01-10T11:36:07.963Z,6.87
2023-01-10T11:38:35.016Z,6.88
2023-01-10T11:41:01.372Z,6.85
2023-01-10T11:43:27.768Z,6.89
2023-01-10T11:45:54.123Z,6.96
2023-01-10T11:48:21.407Z,6.89
2023-01-10T11:50:50.966Z,7.02
2023-01-10T11:53:17.318Z,7.00
2023-01-10T11:55:43.653Z,7.15
2023-01-10T11:58:10.150Z,7.27
2023-01-10T12:00:36.559Z,7.19
2023-01-10T12:03:02.878Z,7.21
2023-01-10T12:05:29.329Z,7.26
2023-01-10T12:07:56.313Z,7.27
2023-01-10T12:10:22.698Z,7.30
2023-01-10T12:12:49.004Z,7.39
2023-01-10T12:15:15.344Z,7.27
2023-01-10T12:17:41.701Z,7.38
2023-01-10T12:20:08.042Z,7.40
2023-01-10T12:22:34.353Z,7.41
2023-01-10T12:25:00.665Z,7.51
2023-01-10T12:27:27.496Z,7.56
2023-01-10T12:29:53.843Z,7.57
2023-01-10T12:32:20.303Z,7.62
2023-01-10T12:34:46.621Z,7.43
2023-01-10T12:37:14.795Z,7.61
2023-01-10T12:39:41.420Z,7.63
2023-01-10T12:42:26.738Z,7.67
2023-01-10T12:44:53.050Z,7.70
2023-01-10T12:47:19.656Z,7.73
2023-01-10T12:49:46.077Z,7.91
2023-01-10T12:52:12.395Z,7.75
2023-01-10T12:54:38.719Z,7.60
2023-01-10T12:57:05.044Z,7.43
2023-01-10T12:59:38.054Z,7.44
2023-01-10T13:02:04.566Z,7.41
2023-01-10T13:04:30.921Z,7.52
2023-01-10T13:06:57.283Z,7.48
2023-01-10T13:09:23.804Z,7.29
2023-01-10T13:11:50.185Z,7.37
2023-01-10T13:14:16.493Z,7.34
2023-01-10T13:16:42.961Z,7.38
2023-01-10T13:19:09.276Z,7.40
2023-01-10T13:21:35.663Z,7.35
2023-01-10T13:24:02.055Z,7.32
2023-01-10T13:26:28.414Z,7.30
2023-01-10T13:28:54.945Z,7.34
2023-01-10T13:31:21.398Z,7.29
2023-01-10T13:33:47.735Z,7.31
2023-01-10T13:36:14.080Z,7.32
2023-01-10T13:38:40.454Z,7.46
2023-01-10T13:41:06.753Z,7.33
2023-01-10T13:43:36.911Z,7.30
2023-01-10T13:46:03.328Z,7.25
2023-01-10T13:48:29.689Z,7.22
2023-01-10T13:50:56.001Z,7.15
2023-01-10T13:53:22.355Z,7.40
2023-01-10T13:55:53.934Z,7.34
2023-01-10T13:58:21.439Z,7.32
2023-01-10T14:01:06.785Z,7.50
2023-01-10T14:03:33.182Z,7.36
2023-01-10T14:05:59.591Z,7.20
2023-01-10T14:08:25.897Z,7.22
2023-01-10T14:10:52.203Z,7.32
2023-01-10T14:13:18.503Z,7.27
2023-01-10T14:15:45.928Z,7.31
2023-01-10T14:18:12.302Z,7.19
2023-01-10T14:20:38.682Z,7.28
2023-01-10T14:23:05.455Z,7.16
2023-01-10T14:25:31.820Z,7.27
2023-01-10T14:27:59.079Z,7.23
2023-01-10T14:30:25.394Z,7.07
2023-01-10T14:32:51.766Z,7.10
2023-01-10T14:35:18.079Z,7.23
2023-01-10T14:37:44.408Z,7.05
2023-01-10T14:40:10.715Z,7.01
2023-01-10T14:42:37.072Z,7.13
2023-01-10T14:45:03.417Z,7.12
2023-01-10T14:47:29.882Z,7.09
2023-01-10T14:50:03.406Z,7.00
2023-01-10T14:52:29.749Z,6.96
2023-01-10T14:54:57.037Z,7.06
2023-01-10T14:57:23.476Z,6.96
2023-01-10T14:59:50.251Z,6.98
2023-01-10T15:02:21.141Z,7.03
2023-01-10T15:04:47.569Z,7.01
2023-01-10T15:07:13.911Z,6.93
2023-01-10T15:09:40.302Z,6.86
2023-01-10T15:12:06.626Z,6.93
2023-01-10T15:14:33.032Z,6.85
2023-01-10T15:17:00.867Z,6.91
2023-01-10T15:19:27.176Z,6.93
2023-01-10T15:21:53.969Z,6.78
2023-01-10T15:24:20.294Z,6.93
2023-01-10T15:26:46.604Z,6.98
2023-01-10T15:29:13.267Z,6.88
2023-01-10T15:31:39.688Z,6.79
2023-01-10T15:34:06.052Z,6.77
2023-01-10T15:36:32.397Z,6.88
2023-01-10T15:38:58.769Z,6.99
2023-01-10T15:41:25.076Z,7.00
2023-01-10T15:43:54.345Z,6.88
2023-01-10T15:46:20.743Z,6.92
2023-01-10T15:48:47.165Z,7.06
2023-01-10T15:51:13.639Z,7.14
2023-01-10T15:53:39.960Z,7.11
2023-01-10T15:56:06.290Z,7.04
2023-01-10T15:58:32.598Z,7.05
2023-01-10T16:00:59.084Z,7.14
2023-01-10T16:03:25.670Z,6.91
2023-01-10T16:05:52.213Z,6.81
2023-01-10T16:08:18.539Z,6.85
2023-01-10T16:10:44.924Z,6.79
2023-01-10T16:13:31.760Z,6.65
2023-01-10T16:15:58.221Z,6.89
2023-01-10T16:18:24.599Z,6.96
2023-01-10T16:20:50.937Z,6.86
2023-01-10T16:23:17.562Z,6.89
2023-01-10T16:25:44.823Z,6.90
2023-01-10T16:28:11.129Z,6.96
2023-01-10T16:30:40.603Z,6.89
2023-01-10T16:33:06.949Z,7.01
2023-01-10T16:35:33.287Z,7.03
2023-01-10T16:38:00.716Z,7.03
2023-01-10T16:40:27.618Z,7.00
2023-01-10T16:43:12.893Z,6.77
2023-01-10T16:45:39.293Z,6.73
2023-01-10T16:48:05.662Z,6.54
2023-01-10T16:50:32.056Z,6.62
2023-01-10T16:52:58.369Z,6.59
2023-01-10T16:55:24.852Z,6.84
2023-01-10T16:57:51.832Z,7.34
2023-01-10T17:00:18.176Z,7.73
2023-01-10T17:02:44.519Z,7.82
2023-01-10T17:05:10.915Z,7.59
2023-01-10T17:07:37.325Z,7.75
2023-01-10T17:10:04.488Z,7.40
2023-01-10T17:12:30.816Z,7.47
2023-01-10T17:14:57.192Z,7.67
2023-01-10T17:17:23.508Z,7.63
2023-01-10T17:19:49.809Z,7.53
2023-01-10T17:22:16.193Z,7.68
2023-01-10T17:24:42.582Z,7.69
2023-01-10T17:27:08.995Z,7.53
2023-01-10T17:29:35.551Z,7.50
2023-01-10T17:32:02.043Z,7.29
2023-01-10T17:34:31.181Z,7.28
2023-01-10T17:36:57.493Z,7.23
2023-01-10T17:39:23.810Z,7.25
2023-01-10T17:41:50.390Z,6.90
2023-01-10T17:44:16.711Z,6.56
2023-01-10T17:46:43.043Z,6.68
2023-01-10T17:49:09.943Z,6.53
2023-01-10T17:51:37.141Z,6.91
2023-01-10T17:54:03.725Z,6.72
2023-01-10T17:56:30.067Z,6.73
2023-01-10T17:58:56.374Z,6.57
2023-01-10T18:01:25.236Z,6.68
2023-01-10T18:03:51.981Z,6.74
2023-01-10T18:06:23.811Z,6.86
2023-01-10T18:08:50.753Z,6.60
2023-01-10T18:11:17.189Z,6.80
2023-01-10T18:13:43.519Z,7.06
2023-01-10T18:16:09.851Z,6.57
2023-01-10T18:18:36.254Z,6.33
2023-01-10T18:21:05.347Z,6.43
2023-01-10T18:23:32.844Z,6.65
2023-01-10T18:26:02.425Z,6.77
2023-01-10T18:28:40.118Z,6.90
2023-01-10T18:31:07.607Z,6.97
2023-01-10T18:33:33.982Z,6.73
2023-01-10T18:36:00.316Z,6.68
2023-01-10T18:38:26.648Z,6.69
2023-01-10T18:40:53.030Z,6.40
2023-01-10T18:43:19.410Z,6.75
2023-01-10T18:45:45.805Z,6.71
2023-01-10T18:48:12.210Z,6.84
2023-01-10T18:50:38.540Z,6.62
2023-01-10T18:53:04.938Z,6.71
2023-01-10T18:55:31.335Z,6.39
2023-01-10T18:57:57.741Z,6.28
2023-01-10T19:00:24.074Z,6.45
2023-01-10T19:02:50.503Z,6.44
2023-01-10T19:05:16.933Z,6.19
2023-01-10T19:07:43.267Z,6.25
2023-01-10T19:10:10.192Z,5.94
2023-01-10T19:12:40.598Z,5.79
2023-01-10T19:15:06.945Z,5.83
2023-01-10T19:17:33.254Z,5.71
2023-01-10T19:19:59.584Z,5.67
2023-01-10T19:22:25.966Z,5.37
2023-01-10T19:24:52.310Z,5.38
2023-01-10T19:27:18.708Z,5.27
2023-01-10T19:29:48.239Z,5.33
2023-01-10T19:32:14.806Z,5.43
2023-01-10T19:34:41.167Z,5.40
2023-01-10T19:37:07.571Z,5.38
2023-01-10T19:39:33.954Z,5.19
2023-01-10T19:42:03.565Z,5.20
2023-01-10T19:44:29.958Z,5.18
2023-01-10T19:46:56.295Z,5.34
2023-01-10T19:49:23.479Z,5.23
2023-01-10T19:51:51.265Z,5.05
2023-01-10T19:54:17.653Z,4.97
2023-01-10T19:56:44.030Z,4.91
2023-01-10T19:59:10.422Z,4.75
2023-01-10T20:01:36.771Z,4.52
2023-01-10T20:04:03.126Z,4.51
2023-01-10T20:06:29.456Z,4.53
2023-01-10T20:08:55.918Z,4.63
2023-01-10T20:11:22.299Z,4.75
2023-01-10T20:13:49.411Z,4.67
2023-01-10T20:16:15.842Z,4.66
2023-01-10T20:18:42.220Z,4.68
2023-01-10T20:21:08.609Z,4.53
2023-01-10T20:23:34.939Z,4.50
2023-01-10T20:26:06.233Z,4.50
2023-01-10T20:28:32.558Z,4.37
2023-01-10T20:30:58.898Z,4.36
2023-01-10T20:33:26.941Z,4.25
2023-01-10T20:35:53.277Z,4.30
2023-01-10T20:38:19.667Z,4.10
2023-01-10T20:40:45.971Z,4.07
2023-01-10T20:43:12.478Z,4.02
2023-01-10T20:45:38.792Z,4.07
2023-01-10T20:48:05.434Z,3.95
2023-01-10T20:50:31.765Z,4.24
2023-01-10T20:52:58.079Z,4.22
2023-01-10T20:55:24.417Z,4.27
2023-01-10T20:57:50.757Z,4.15
2023-01-10T21:00:18.028Z,4.06
2023-01-10T21:02:44.446Z,3.97
2023-01-10T21:05:10.893Z,4.08
2023-01-10T21:07:37.222Z,4.11
2023-01-10T21:10:03.568Z,4.00
2023-01-10T21:12:31.313Z,3.97
2023-01-10T21:14:57.640Z,3.86
2023-01-10T21:17:23.979Z,3.81
2023-01-10T21:19:50.303Z,3.67
2023-01-10T21:22:17.344Z,3.57
2023-01-10T21:24:43.667Z,3.41
2023-01-10T21:27:10.039Z,3.37
2023-01-10T21:29:36.479Z,3.35
2023-01-10T21:32:02.840Z,3.48
2023-01-10T21:34:29.165Z,3.41
2023-01-10T21:36:57.003Z,3.45
2023-01-10T21:39:23.337Z,3.43
2023-01-10T21:42:08.472Z,3.13
2023-01-10T21:44:34.801Z,3.33
2023-01-10T21:47:01.212Z,3.38
2023-01-10T21:49:27.581Z,3.36
2023-01-10T21:51:53.886Z,3.29
2023-01-10T21:54:20.283Z,3.26
2023-01-10T21:56:46.624Z,3.20
2023-01-10T21:59:12.956Z,3.21
2023-01-10T22:01:39.273Z,3.09
2023-01-10T22:04:05.638Z,2.96
2023-01-10T22:06:32.088Z,3.04
2023-01-10T22:08:58.461Z,3.03
2023-01-10T22:11:24.784Z,3.08
2023-01-10T22:13:52.768Z,3.05
2023-01-10T22:16:19.134Z,3.01
2023-01-10T22:18:45.700Z,2.91
2023-01-10T22:21:12.660Z,2.78
2023-01-10T22:23:43.015Z,2.82
2023-01-10T22:26:09.346Z,2.92
2023-01-10T22:28:35.705Z,2.79
2023-01-10T22:31:02.016Z,2.91
2023-01-10T22:33:28.338Z,2.93
2023-01-10T22:35:54.665Z,2.85
2023-01-10T22:38:20.989Z,2.83
2023-01-10T22:40:47.313Z,2.89
2023-01-10T22:43:13.717Z,2.93
2023-01-10T22:45:40.113Z,2.99
2023-01-10T22:48:06.474Z,3.08
2023-01-10T22:50:32.807Z,2.99
2023-01-10T22:52:59.127Z,3.12
2023-01-10T22:55:25.455Z,3.15
2023-01-10T22:57:51.769Z,3.17
2023-01-10T23:00:18.152Z,3.18
2023-01-10T23:02:44.529Z,3.07
2023-01-10T23:05:10.892Z,3.12
2023-01-10T23:07:37.263Z,3.08
2023-01-10T23:10:03.577Z,3.08
2023-01-10T23:12:29.896Z,2.98
2023-01-10T23:14:56.271Z,3.06
2023-01-10T23:17:23.697Z,2.95
2023-01-10T23:19:50.020Z,2.82
2023-01-10T23:22:16.368Z,2.77
2023-01-10T23:24:42.699Z,2.67
2023-01-10T23:27:09.015Z,2.72
2023-01-10T23:29:35.338Z,2.71
2023-01-10T23:32:01.831Z,2.64
2023-01-10T23:34:28.158Z,2.71
2023-01-10T23:36:54.475Z,2.75
2023-01-10T23:39:20.781Z,2.75
2023-01-10T23:41:47.133Z,2.76
2023-01-10T23:44:13.519Z,2.69
2023-01-10T23:46:39.855Z,2.58
2023-01-10T23:49:06.238Z,2.74
2023-01-10T23:51:32.556Z,2.71
2023-01-10T23:53:58.962Z,2.56
2023-01-10T23:56:25.282Z,2.41
2023-01-10T23:58:52.587Z,2.36
